createdAt,value
2018-06-13T00:00:40.550Z,127.7271
2018-06-13T00:01:45.718Z,127.4734
2018-06-13T00:02:50.308Z,127.0506
2018-06-13T00:03:56.148Z,128.7364
2018-06-13T00:05:01.319Z,127.7271
2018-06-13T00:06:06.183Z,128.7364
2018-06-13T00:07:11.969Z,128.2318
2018-06-13T00:08:17.408Z,127.2197
2018-06-13T00:09:22.837Z,128.4854
2018-06-13T00:10:28.833Z,128.4854
2018-06-13T00:11:33.988Z,126.7996
2018-06-13T00:12:39.262Z,128.2318
2018-06-13T00:13:44.137Z,127.4734
2018-06-13T00:14:48.431Z,127.4734
2018-06-13T00:15:53.554Z,126.7996
2018-06-13T00:16:58.430Z,128.2318
2018-06-13T00:18:02.742Z,127.4734
2018-06-13T00:19:07.586Z,127.4734
2018-06-13T00:20:11.905Z,127.9781
2018-06-13T00:21:17.039Z,127.9781
2018-06-13T00:22:22.718Z,127.4734
2018-06-13T00:23:27.866Z,127.2197
2018-06-13T00:24:33.795Z,127.9781
2018-06-13T00:25:38.670Z,127.4734
2018-06-13T00:26:43.544Z,127.2197
2018-06-13T00:27:48.519Z,127.4734
2018-06-13T00:28:53.967Z,127.0506
2018-06-13T00:29:59.134Z,127.0506
2018-06-13T00:31:04.652Z,127.4734
2018-06-13T00:32:09.507Z,127.0506
2018-06-13T00:33:14.540Z,125.7876
2018-06-13T00:34:19.982Z,127.0506
2018-06-13T00:35:25.412Z,127.2197
2018-06-13T00:36:30.742Z,126.2949
2018-06-13T00:37:35.887Z,127.4734
2018-06-13T00:38:41.041Z,127.4734
2018-06-13T00:39:46.367Z,127.2197
2018-06-13T00:40:51.799Z,127.2197
2018-06-13T00:41:57.244Z,127.7271
2018-06-13T00:43:02.691Z,127.7271
2018-06-13T00:44:08.145Z,128.4854
2018-06-13T00:45:13.298Z,127.7271
2018-06-13T00:46:18.536Z,127.7271
2018-06-13T00:47:23.688Z,128.4854
2018-06-13T00:48:29.197Z,127.7271
2018-06-13T00:49:34.375Z,127.4734
2018-06-13T00:50:39.281Z,128.2318
2018-06-13T00:51:44.962Z,128.4854
2018-06-13T00:52:50.396Z,128.4854
2018-06-13T00:53:55.283Z,128.7364
2018-06-13T00:55:00.398Z,128.4854
2018-06-13T00:56:05.292Z,128.7364
2018-06-13T00:57:09.887Z,128.9055
2018-06-13T00:58:15.288Z,128.7364
2018-06-13T00:59:20.163Z,128.7364
2018-06-13T01:01:46.038Z,127.9781
2018-06-13T01:02:51.478Z,126.7996
2018-06-13T01:03:56.984Z,128.2318
2018-06-13T01:05:02.149Z,129.1592
2018-06-13T01:06:07.593Z,128.9055
2018-06-13T01:07:13.487Z,129.4102
2018-06-13T01:08:18.946Z,128.4854
2018-06-13T01:09:24.397Z,128.9055
2018-06-13T01:10:30.210Z,129.5793
2018-06-13T01:11:35.642Z,129.1592
2018-06-13T01:12:40.746Z,129.1592
2018-06-13T01:13:46.194Z,128.9055
2018-06-13T01:14:51.379Z,128.9055
2018-06-13T01:15:56.933Z,128.2318
2018-06-13T01:17:02.088Z,129.1592
2018-06-13T01:18:06.969Z,129.4102
2018-06-13T01:19:12.142Z,129.4102
2018-06-13T01:20:17.586Z,128.4854
2018-06-13T01:21:22.720Z,128.9055
2018-06-13T01:22:28.314Z,129.1592
2018-06-13T01:23:33.744Z,127.4734
2018-06-13T01:24:39.595Z,128.4854
2018-06-13T01:25:45.039Z,128.4854
2018-06-13T01:26:49.937Z,128.4854
2018-06-13T01:27:55.627Z,128.2318
2018-06-13T01:29:01.074Z,129.1592
2018-06-13T01:30:06.219Z,128.9055
2018-06-13T01:31:11.713Z,128.4854
2018-06-13T01:32:16.606Z,129.1592
2018-06-13T01:33:21.761Z,128.2318
2018-06-13T01:34:26.600Z,127.7271
2018-06-13T01:35:31.755Z,128.4854
2018-06-13T01:36:36.587Z,128.7364
2018-06-13T01:37:42.038Z,128.4854
2018-06-13T01:38:46.903Z,128.7364
2018-06-13T01:39:52.306Z,128.4854
2018-06-13T01:40:57.172Z,128.4854
2018-06-13T01:42:02.346Z,129.5793
2018-06-13T01:43:07.562Z,128.7364
2018-06-13T01:44:12.429Z,128.7364
2018-06-13T01:45:17.027Z,128.9055
2018-06-13T01:46:22.244Z,128.7364
2018-06-13T01:47:27.397Z,129.1592
2018-06-13T01:48:33.181Z,128.9055
2018-06-13T01:49:38.635Z,127.9781
2018-06-13T01:50:43.510Z,128.2318
2018-06-13T01:51:49.287Z,128.7364
2018-06-13T01:52:54.447Z,127.9781
2018-06-13T01:53:59.589Z,127.9781
2018-06-13T01:55:04.995Z,128.4854
2018-06-13T01:56:09.859Z,128.9055
2018-06-13T01:57:15.028Z,128.9055
2018-06-13T01:58:20.445Z,128.9055
2018-06-13T01:59:25.351Z,128.9055
2018-06-13T02:00:30.691Z,128.9055
2018-06-13T02:01:35.578Z,128.9055
2018-06-13T02:02:40.434Z,127.2197
2018-06-13T02:03:46.234Z,128.9055
2018-06-13T02:04:51.386Z,128.4854
2018-06-13T02:05:56.540Z,128.4854
2018-06-13T02:07:02.330Z,128.2318
2018-06-13T02:08:06.927Z,127.9781
2018-06-13T02:09:11.798Z,128.7364
2018-06-13T02:10:17.477Z,128.9055
2018-06-13T02:11:22.620Z,127.9781
2018-06-13T02:12:28.700Z,128.9055
2018-06-13T02:13:34.135Z,128.2318
2018-06-13T02:14:39.581Z,128.9055
2018-06-13T02:15:45.127Z,128.4854
2018-06-13T02:16:50.001Z,128.2318
2018-06-13T02:17:55.154Z,128.7364
2018-06-13T02:19:00.713Z,127.9781
2018-06-13T02:20:05.609Z,129.833
2018-06-13T02:21:11.042Z,129.1592
2018-06-13T02:22:16.498Z,129.833
2018-06-13T02:23:21.932Z,129.833
2018-06-13T02:24:42.019Z,129.1592
2018-06-13T02:25:47.190Z,128.4854
2018-06-13T02:26:52.318Z,129.1592
2018-06-13T02:27:58.100Z,128.7364
2018-06-13T02:29:02.688Z,128.7364
2018-06-13T02:30:07.273Z,128.2318
2018-06-13T02:31:12.677Z,128.7364
2018-06-13T02:32:17.265Z,128.7364
2018-06-13T02:33:22.120Z,128.9055
2018-06-13T02:34:27.617Z,128.9055
2018-06-13T02:35:32.214Z,130.0867
2018-06-13T02:36:37.965Z,129.6639
2018-06-13T02:37:43.411Z,129.4102
2018-06-13T02:38:48.561Z,128.9055
2018-06-13T02:39:54.242Z,129.1592
2018-06-13T02:40:59.110Z,128.7364
2018-06-13T02:42:03.985Z,128.4854
2018-06-13T02:43:08.917Z,128.9055
2018-06-13T02:44:14.078Z,129.6639
2018-06-13T02:45:19.236Z,128.2318
2018-06-13T02:46:24.647Z,128.4854
2018-06-13T02:47:29.808Z,128.4854
2018-06-13T02:48:35.410Z,127.7271
2018-06-13T02:49:40.309Z,128.7364
2018-06-13T02:50:45.454Z,128.7364
2018-06-13T02:51:51.143Z,127.9781
2018-06-13T02:52:56.575Z,127.7271
2018-06-13T02:54:01.471Z,128.7364
2018-06-13T02:55:06.738Z,127.7271
2018-06-13T02:56:12.186Z,127.9781
2018-06-13T02:57:17.371Z,128.2318
2018-06-13T02:58:22.761Z,128.2318
2018-06-13T02:59:27.072Z,128.7364
2018-06-13T03:00:32.506Z,127.558
2018-06-13T03:01:37.943Z,127.9781
2018-06-13T03:02:43.120Z,126.2949
2018-06-13T03:03:48.897Z,127.7271
2018-06-13T03:04:53.781Z,127.3043
2018-06-13T03:05:58.656Z,127.7271
2018-06-13T03:07:04.153Z,127.558
2018-06-13T03:08:09.330Z,128.4854
2018-06-13T03:09:14.190Z,128.4854
2018-06-13T03:10:19.309Z,127.7271
2018-06-13T03:11:24.763Z,127.3043
2018-06-13T03:12:30.702Z,127.558
2018-06-13T03:13:35.868Z,127.9781
2018-06-13T03:14:40.453Z,127.3043
2018-06-13T03:15:45.992Z,127.558
2018-06-13T03:16:51.156Z,128.2318
2018-06-13T03:17:56.585Z,127.7271
2018-06-13T03:19:01.986Z,127.3043
2018-06-13T03:20:06.867Z,127.558
2018-06-13T03:21:11.509Z,128.2318
2018-06-13T03:22:17.066Z,128.7364
2018-06-13T03:23:22.495Z,126.7996
2018-06-13T03:24:28.495Z,127.558
2018-06-13T03:25:33.376Z,127.0506
2018-06-13T03:26:38.518Z,127.558
2018-06-13T03:27:43.933Z,127.3043
2018-06-13T03:28:49.084Z,127.558
2018-06-13T03:29:53.950Z,127.0506
2018-06-13T03:30:59.406Z,127.0506
2018-06-13T03:32:04.278Z,126.7996
2018-06-13T03:33:09.714Z,127.7271
2018-06-13T03:34:14.848Z,127.0506
2018-06-13T03:35:20.014Z,127.0506
2018-06-13T03:36:40.282Z,126.7996
2018-06-13T03:37:45.712Z,127.558
2018-06-13T03:38:50.876Z,127.3043
2018-06-13T03:39:55.999Z,127.7271
2018-06-13T03:41:01.570Z,126.7996
2018-06-13T03:42:06.216Z,127.7271
2018-06-13T03:43:11.046Z,127.558
2018-06-13T03:44:16.198Z,127.558
2018-06-13T03:45:20.511Z,127.558
2018-06-13T03:46:26.200Z,127.7271
2018-06-13T03:47:31.660Z,127.558
2018-06-13T03:48:37.431Z,127.7271
2018-06-13T03:49:42.309Z,127.558
2018-06-13T03:50:47.454Z,127.558
2018-06-13T03:51:53.285Z,126.2949
2018-06-13T03:52:58.153Z,127.3043
2018-06-13T03:54:03.330Z,127.3043
2018-06-13T03:55:08.308Z,125.7876
2018-06-13T03:56:13.175Z,127.3043
2018-06-13T03:57:18.037Z,127.558
2018-06-13T03:58:23.727Z,126.7996
2018-06-13T03:59:28.910Z,127.558
2018-06-13T04:00:34.791Z,127.0506
2018-06-13T04:01:39.946Z,126.7996
2018-06-13T04:02:44.573Z,127.0506
2018-06-13T04:03:49.991Z,127.3043
2018-06-13T04:04:55.167Z,127.7271
2018-06-13T04:06:00.323Z,127.7271
2018-06-13T04:07:05.178Z,127.9781
2018-06-13T04:08:10.088Z,127.7271
2018-06-13T04:09:15.529Z,127.9781
2018-06-13T04:10:21.210Z,127.0506
2018-06-13T04:11:26.651Z,127.558
2018-06-13T04:12:32.106Z,127.558
2018-06-13T04:13:37.645Z,126.7996
2018-06-13T04:14:42.858Z,127.3043
2018-06-13T04:15:48.486Z,127.7271
2018-06-13T04:16:53.920Z,126.7996
2018-06-13T04:17:58.779Z,126.0413
2018-06-13T04:19:04.205Z,126.7996
2018-06-13T04:20:09.077Z,127.3043
2018-06-13T04:21:14.225Z,126.0413
2018-06-13T04:22:19.633Z,125.3675
2018-06-13T04:23:24.793Z,126.2949
2018-06-13T04:24:31.428Z,126.2949
2018-06-13T04:25:36.858Z,125.3675
2018-06-13T04:26:42.299Z,124.9447
2018-06-13T04:27:47.422Z,125.3675
2018-06-13T04:28:52.868Z,125.7876
2018-06-13T04:29:58.015Z,125.7876
2018-06-13T04:31:03.706Z,125.1138
2018-06-13T04:32:08.571Z,125.3675
2018-06-13T04:33:13.715Z,125.1138
2018-06-13T04:34:19.149Z,125.3675
2018-06-13T04:35:24.318Z,124.6937
2018-06-13T04:36:30.097Z,124.6937
2018-06-13T04:37:35.233Z,124.9447
2018-06-13T04:38:40.378Z,124.6937
2018-06-13T04:39:46.064Z,124.6937
2018-06-13T04:40:51.543Z,125.1138
2018-06-13T04:41:56.877Z,124.1864
2018-06-13T04:43:02.071Z,124.9447
2018-06-13T04:44:07.517Z,124.44
2018-06-13T04:45:12.382Z,125.3675
2018-06-13T04:46:17.080Z,125.3675
2018-06-13T04:47:22.526Z,124.44
2018-06-13T04:48:28.411Z,125.1138
2018-06-13T04:49:33.838Z,125.5366
2018-06-13T04:50:39.279Z,125.3675
2018-06-13T04:51:44.785Z,125.1138
2018-06-13T04:52:49.937Z,125.1138
2018-06-13T04:53:55.085Z,125.5366
2018-06-13T04:55:00.521Z,124.9447
2018-06-13T04:56:05.951Z,125.1138
2018-06-13T04:57:11.395Z,124.9447
2018-06-13T04:58:17.024Z,124.9447
2018-06-13T04:59:21.882Z,124.6937
2018-06-13T05:01:47.222Z,124.44
2018-06-13T05:02:52.685Z,124.44
2018-06-13T05:03:58.367Z,123.9353
2018-06-13T05:05:03.241Z,124.9447
2018-06-13T05:06:08.124Z,124.44
2018-06-13T05:07:13.821Z,124.6937
2018-06-13T05:08:18.979Z,124.9447
2018-06-13T05:09:24.417Z,124.44
2018-06-13T05:10:30.160Z,124.9447
2018-06-13T05:11:35.028Z,124.44
2018-06-13T05:12:40.139Z,124.44
2018-06-13T05:13:45.285Z,124.6937
2018-06-13T05:14:50.668Z,123.428
2018-06-13T05:15:55.643Z,124.9447
2018-06-13T05:17:00.788Z,123.9353
2018-06-13T05:18:05.937Z,124.44
2018-06-13T05:19:11.617Z,124.9447
2018-06-13T05:20:16.798Z,124.44
2018-06-13T05:21:22.227Z,124.44
2018-06-13T05:22:27.780Z,125.1138
2018-06-13T05:23:33.210Z,124.44
2018-06-13T05:24:38.891Z,123.428
2018-06-13T05:25:44.056Z,123.6817
2018-06-13T05:26:49.236Z,123.428
2018-06-13T05:27:54.173Z,123.6817
2018-06-13T05:28:59.316Z,124.44
2018-06-13T05:30:04.241Z,123.6817
2018-06-13T05:31:09.372Z,123.177
2018-06-13T05:32:14.800Z,123.6817
2018-06-13T05:33:19.955Z,123.9353
2018-06-13T05:34:25.822Z,123.177
2018-06-13T05:35:31.093Z,122.5032
2018-06-13T05:36:36.191Z,121.9985
2018-06-13T05:37:41.072Z,122.7542
2018-06-13T05:38:46.248Z,121.9985
2018-06-13T05:39:51.651Z,122.7542
2018-06-13T05:40:56.550Z,122.7542
2018-06-13T05:42:01.985Z,122.5032
2018-06-13T05:43:07.103Z,122.2495
2018-06-13T05:44:11.721Z,122.9233
2018-06-13T05:45:17.190Z,122.5032
2018-06-13T05:46:23.309Z,121.9985
2018-06-13T05:47:28.744Z,121.9985
2018-06-13T05:48:34.075Z,121.9985
2018-06-13T05:49:39.512Z,121.2402
2018-06-13T05:50:44.936Z,121.2402
2018-06-13T05:51:50.439Z,122.2495
2018-06-13T05:52:55.590Z,121.7449
2018-06-13T05:54:00.735Z,122.5032
2018-06-13T05:55:06.141Z,122.2495
2018-06-13T05:56:11.487Z,121.7449
2018-06-13T05:57:16.064Z,121.4912
2018-06-13T05:58:21.210Z,121.9985
2018-06-13T05:59:25.834Z,121.7449
2018-06-13T06:00:31.821Z,121.9985
2018-06-13T06:01:37.283Z,121.9985
2018-06-13T06:02:42.157Z,121.2402
2018-06-13T06:03:47.115Z,121.2402
2018-06-13T06:04:52.270Z,121.7449
2018-06-13T06:05:57.135Z,121.2402
2018-06-13T06:07:02.119Z,120.7328
2018-06-13T06:08:07.274Z,120.4818
2018-06-13T06:09:11.852Z,120.3127
2018-06-13T06:10:17.642Z,119.808
2018-06-13T06:11:22.907Z,120.4818
2018-06-13T06:12:27.959Z,119.808
2018-06-13T06:13:33.131Z,120.3127
2018-06-13T06:14:38.569Z,120.0591
2018-06-13T06:15:44.249Z,120.4818
2018-06-13T06:16:49.683Z,120.4818
2018-06-13T06:17:54.839Z,120.7328
2018-06-13T06:19:00.494Z,121.2402
2018-06-13T06:20:05.575Z,121.2402
2018-06-13T06:21:11.056Z,120.4818
2018-06-13T06:22:16.751Z,120.9865
2018-06-13T06:23:22.181Z,120.9865
2018-06-13T06:24:42.515Z,121.2402
2018-06-13T06:25:47.948Z,121.2402
2018-06-13T06:26:53.110Z,121.7449
2018-06-13T06:27:58.513Z,121.4912
2018-06-13T06:29:03.115Z,121.4912
2018-06-13T06:30:08.257Z,121.9985
2018-06-13T06:31:12.914Z,121.4912
2018-06-13T06:32:18.279Z,121.7449
2018-06-13T06:33:23.709Z,120.3127
2018-06-13T06:34:28.831Z,120.9865
2018-06-13T06:35:34.289Z,120.7328
2018-06-13T06:36:39.505Z,120.7328
2018-06-13T06:37:44.659Z,120.9865
2018-06-13T06:38:49.818Z,119.808
2018-06-13T06:39:55.237Z,120.4818
2018-06-13T06:41:00.383Z,120.7328
2018-06-13T06:42:05.375Z,120.9865
2018-06-13T06:43:10.513Z,120.3127
2018-06-13T06:44:15.669Z,120.0591
2018-06-13T06:45:20.262Z,120.3127
2018-06-13T06:46:25.873Z,120.3127
2018-06-13T06:47:31.033Z,120.3127
2018-06-13T06:48:36.716Z,119.808
2018-06-13T06:49:41.677Z,120.3127
2018-06-13T06:50:46.635Z,121.2402
2018-06-13T06:51:52.045Z,120.3127
2018-06-13T06:52:57.189Z,120.3127
2018-06-13T06:54:02.090Z,120.3127
2018-06-13T06:55:06.843Z,120.3127
2018-06-13T06:56:11.483Z,120.3127
2018-06-13T06:57:16.631Z,120.3127
2018-06-13T06:58:22.473Z,119.808
2018-06-13T06:59:27.376Z,120.3127
2018-06-13T07:00:32.933Z,119.5544
2018-06-13T07:01:38.083Z,119.5544
2018-06-13T07:02:43.114Z,120.3127
2018-06-13T07:03:48.402Z,119.808
2018-06-13T07:04:54.173Z,119.3034
2018-06-13T07:05:59.345Z,119.5544
2018-06-13T07:07:04.497Z,119.3034
2018-06-13T07:08:09.664Z,119.5544
2018-06-13T07:09:15.133Z,118.545
2018-06-13T07:10:20.108Z,119.0497
2018-06-13T07:11:25.464Z,118.0403
2018-06-13T07:12:30.971Z,119.0497
2018-06-13T07:13:36.128Z,118.545
2018-06-13T07:14:41.006Z,119.0497
2018-06-13T07:15:46.698Z,119.5544
2018-06-13T07:16:51.564Z,119.3034
2018-06-13T07:17:57.005Z,118.7987
2018-06-13T07:19:03.065Z,119.3034
2018-06-13T07:20:07.697Z,119.3034
2018-06-13T07:21:12.848Z,118.7987
2018-06-13T07:22:18.367Z,119.0497
2018-06-13T07:23:23.809Z,119.5544
2018-06-13T07:24:28.775Z,118.7987
2018-06-13T07:25:33.646Z,119.0497
2018-06-13T07:26:39.236Z,118.545
2018-06-13T07:27:44.785Z,119.808
2018-06-13T07:28:49.669Z,118.2913
2018-06-13T07:29:55.151Z,119.0497
2018-06-13T07:31:00.833Z,119.0497
2018-06-13T07:32:05.699Z,119.3034
2018-06-13T07:33:10.860Z,118.545
2018-06-13T07:34:15.997Z,118.545
2018-06-13T07:35:21.145Z,118.2913
2018-06-13T07:36:27.090Z,118.545
2018-06-13T07:37:32.544Z,118.545
2018-06-13T07:38:37.689Z,119.3034
2018-06-13T07:39:43.477Z,118.545
2018-06-13T07:40:48.076Z,117.8712
2018-06-13T07:41:53.232Z,118.2913
2018-06-13T07:42:59.010Z,118.7987
2018-06-13T07:44:03.590Z,118.545
2018-06-13T07:45:08.754Z,117.6176
2018-06-13T07:46:14.236Z,118.0403
2018-06-13T07:47:19.874Z,118.0403
2018-06-13T07:48:40.242Z,117.3665
2018-06-13T07:49:45.669Z,116.8618
2018-06-13T07:50:51.170Z,117.3665
2018-06-13T07:51:56.879Z,117.3665
2018-06-13T07:53:02.368Z,115.8498
2018-06-13T07:54:06.695Z,116.8618
2018-06-13T07:55:12.308Z,117.6176
2018-06-13T07:56:17.551Z,117.3665
2018-06-13T07:57:22.708Z,117.8712
2018-06-13T07:58:28.276Z,117.1129
2018-06-13T07:59:33.137Z,117.8712
2018-06-13T08:00:38.644Z,117.3665
2018-06-13T08:01:43.518Z,117.6176
2018-06-13T08:02:48.388Z,117.6176
2018-06-13T08:03:54.320Z,118.2913
2018-06-13T08:04:59.954Z,117.6176
2018-06-13T08:06:05.423Z,118.2913
2018-06-13T08:07:10.586Z,119.5544
2018-06-13T08:08:15.797Z,119.3034
2018-06-13T08:09:20.356Z,118.7987
2018-06-13T08:10:25.822Z,118.0403
2018-06-13T08:11:30.412Z,117.6176
2018-06-13T08:12:36.140Z,117.8712
2018-06-13T08:13:40.744Z,117.6176
2018-06-13T08:14:45.616Z,117.6176
2018-06-13T08:15:51.602Z,117.8712
2018-06-13T08:16:57.423Z,117.1129
2018-06-13T08:18:02.289Z,117.6176
2018-06-13T08:19:07.479Z,118.0403
2018-06-13T08:20:12.650Z,118.2913
2018-06-13T08:21:18.120Z,118.545
2018-06-13T08:22:23.681Z,118.0403
2018-06-13T08:23:28.834Z,117.8712
2018-06-13T08:24:33.769Z,118.545
2018-06-13T08:25:39.260Z,118.0403
2018-06-13T08:26:44.422Z,116.8618
2018-06-13T08:27:49.823Z,116.8618
2018-06-13T08:28:54.972Z,116.8618
2018-06-13T08:30:00.404Z,116.8618
2018-06-13T08:31:06.204Z,116.3572
2018-06-13T08:32:11.640Z,116.8618
2018-06-13T08:33:16.508Z,117.1129
2018-06-13T08:34:21.934Z,116.8618
2018-06-13T08:35:27.135Z,116.3572
2018-06-13T08:36:32.260Z,115.8498
2018-06-13T08:37:37.366Z,116.3572
2018-06-13T08:38:42.514Z,116.1035
2018-06-13T08:39:48.041Z,116.3572
2018-06-13T08:40:52.758Z,115.8498
2018-06-13T08:41:57.650Z,115.5988
2018-06-13T08:43:02.912Z,115.4297
2018-06-13T08:44:08.082Z,115.1787
2018-06-13T08:45:12.965Z,115.1787
2018-06-13T08:46:18.108Z,116.1035
2018-06-13T08:47:23.536Z,116.1035
2018-06-13T08:48:28.671Z,115.1787
2018-06-13T08:49:33.809Z,115.4297
2018-06-13T08:50:39.464Z,115.1787
2018-06-13T08:51:45.246Z,115.4297
2018-06-13T08:52:50.677Z,114.925
2018-06-13T08:53:55.558Z,114.925
2018-06-13T08:55:00.969Z,114.925
2018-06-13T08:56:05.851Z,114.4203
2018-06-13T08:57:11.279Z,114.6714
2018-06-13T08:58:16.846Z,114.4203
2018-06-13T08:59:21.991Z,114.1667
2018-06-13T09:00:27.359Z,114.6714
2018-06-13T09:01:32.262Z,114.925
2018-06-13T09:02:37.695Z,114.6714
2018-06-13T09:03:43.379Z,115.5988
2018-06-13T09:04:48.535Z,114.925
2018-06-13T09:05:53.411Z,115.5988
2018-06-13T09:06:58.854Z,116.6082
2018-06-13T09:08:04.021Z,115.5988
2018-06-13T09:09:09.185Z,115.8498
2018-06-13T09:10:14.729Z,115.8498
2018-06-13T09:11:19.519Z,115.8498
2018-06-13T09:12:24.950Z,115.1787
2018-06-13T09:13:30.768Z,115.4297
2018-06-13T09:14:35.364Z,116.3572
2018-06-13T09:15:40.923Z,114.925
2018-06-13T09:16:46.354Z,115.1787
2018-06-13T09:17:51.803Z,115.4297
2018-06-13T09:18:57.208Z,114.925
2018-06-13T09:20:02.091Z,115.1787
2018-06-13T09:21:06.689Z,115.4297
2018-06-13T09:22:12.097Z,114.1667
2018-06-13T09:23:17.523Z,115.1787
2018-06-13T09:24:22.677Z,114.4203
2018-06-13T09:25:28.137Z,114.925
2018-06-13T09:26:33.564Z,115.4297
2018-06-13T09:27:39.113Z,115.4297
2018-06-13T09:28:43.985Z,115.5988
2018-06-13T09:29:49.162Z,114.925
2018-06-13T09:30:54.565Z,115.4297
2018-06-13T09:32:00.161Z,115.4297
2018-06-13T09:33:05.590Z,115.8498
2018-06-13T09:34:10.451Z,115.5988
2018-06-13T09:35:15.338Z,115.1787
2018-06-13T09:36:20.498Z,115.1787
2018-06-13T09:37:26.693Z,114.1667
2018-06-13T09:38:31.644Z,115.1787
2018-06-13T09:39:37.036Z,114.1667
2018-06-13T09:40:41.921Z,114.6714
2018-06-13T09:41:46.803Z,114.1667
2018-06-13T09:42:52.646Z,114.4203
2018-06-13T09:43:58.241Z,114.925
2018-06-13T09:45:03.468Z,114.925
2018-06-13T09:46:14.394Z,113.4929
2018-06-13T09:47:25.458Z,114.6714
2018-06-13T09:48:31.015Z,113.662
2018-06-13T09:49:36.176Z,113.9157
2018-06-13T09:50:41.605Z,114.4203
2018-06-13T09:51:47.041Z,113.4929
2018-06-13T09:52:51.935Z,113.662
2018-06-13T09:53:57.110Z,113.662
2018-06-13T09:55:02.541Z,113.2419
2018-06-13T09:56:06.843Z,112.9882
2018-06-13T09:57:12.276Z,112.9882
2018-06-13T09:58:17.980Z,112.9882
2018-06-13T09:59:23.498Z,113.662
2018-06-13T10:00:43.536Z,112.8217
2018-06-13T10:01:48.537Z,113.2419
2018-06-13T10:02:53.983Z,113.9157
2018-06-13T10:03:59.299Z,113.2419
2018-06-13T10:05:03.929Z,112.9882
2018-06-13T10:06:09.128Z,113.2419
2018-06-13T10:07:14.670Z,112.8217
2018-06-13T10:08:20.111Z,112.8217
2018-06-13T10:09:25.792Z,112.9882
2018-06-13T10:10:30.665Z,113.9157
2018-06-13T10:11:35.540Z,112.9882
2018-06-13T10:12:40.966Z,113.2419
2018-06-13T10:13:46.399Z,113.4929
2018-06-13T10:14:51.161Z,113.2419
2018-06-13T10:15:56.149Z,112.9882
2018-06-13T10:17:00.754Z,113.4929
2018-06-13T10:18:05.343Z,112.9882
2018-06-13T10:19:10.747Z,113.662
2018-06-13T10:20:15.912Z,113.662
2018-06-13T10:21:21.057Z,113.2419
2018-06-13T10:22:26.952Z,113.9157
2018-06-13T10:23:31.456Z,112.5681
2018-06-13T10:24:37.007Z,113.9157
2018-06-13T10:25:42.162Z,112.9882
2018-06-13T10:26:47.172Z,112.9882
2018-06-13T10:27:52.697Z,113.4929
2018-06-13T10:28:58.114Z,114.4203
2018-06-13T10:30:03.142Z,113.2419
2018-06-13T10:31:08.822Z,113.4929
2018-06-13T10:32:13.698Z,112.8217
2018-06-13T10:33:18.583Z,113.4929
2018-06-13T10:34:23.407Z,112.9882
2018-06-13T10:35:28.694Z,112.9882
2018-06-13T10:36:34.310Z,113.9157
2018-06-13T10:37:39.479Z,113.2419
2018-06-13T10:38:44.661Z,112.9882
2018-06-13T10:39:50.066Z,113.662
2018-06-13T10:40:55.222Z,113.662
2018-06-13T10:42:00.391Z,112.9882
2018-06-13T10:43:05.875Z,112.8217
2018-06-13T10:44:11.308Z,112.8217
2018-06-13T10:45:16.465Z,113.4929
2018-06-13T10:46:21.838Z,112.8217
2018-06-13T10:47:27.002Z,112.8217
2018-06-13T10:48:33.257Z,112.8217
2018-06-13T10:49:38.518Z,112.8217
2018-06-13T10:50:43.381Z,112.8217
2018-06-13T10:51:49.101Z,112.3171
2018-06-13T10:52:54.410Z,112.9882
2018-06-13T10:53:59.565Z,112.9882
2018-06-13T10:55:04.990Z,112.5681
2018-06-13T10:56:09.869Z,112.9882
2018-06-13T10:57:15.326Z,112.3171
2018-06-13T10:58:20.436Z,112.8217
2018-06-13T10:59:25.564Z,112.0634
2018-06-13T11:00:30.498Z,112.5681
2018-06-13T11:01:35.942Z,112.9882
2018-06-13T11:02:41.579Z,112.8217
2018-06-13T11:03:46.816Z,112.9882
2018-06-13T11:04:51.987Z,112.5681
2018-06-13T11:05:57.414Z,112.0634
2018-06-13T11:07:02.390Z,112.8217
2018-06-13T11:08:06.707Z,112.0634
2018-06-13T11:09:11.860Z,112.3171
2018-06-13T11:10:17.265Z,112.3171
2018-06-13T11:11:22.445Z,111.8124
2018-06-13T11:12:28.300Z,112.0634
2018-06-13T11:13:33.494Z,111.8124
2018-06-13T11:14:38.638Z,112.3171
2018-06-13T11:15:44.322Z,112.5681
2018-06-13T11:16:49.765Z,112.0634
2018-06-13T11:17:55.198Z,112.8217
2018-06-13T11:19:00.887Z,112.8217
2018-06-13T11:20:06.003Z,112.8217
2018-06-13T11:21:10.887Z,113.2419
2018-06-13T11:22:16.294Z,112.8217
2018-06-13T11:23:21.770Z,112.8217
2018-06-13T11:24:28.065Z,113.2419
2018-06-13T11:25:33.525Z,113.4929
2018-06-13T11:26:38.695Z,113.4929
2018-06-13T11:27:44.098Z,113.4929
2018-06-13T11:28:49.732Z,113.4929
2018-06-13T11:29:54.900Z,113.662
2018-06-13T11:31:00.602Z,114.6714
2018-06-13T11:32:05.493Z,113.4929
2018-06-13T11:33:10.098Z,114.4203
2018-06-13T11:34:15.524Z,113.9157
2018-06-13T11:35:20.393Z,113.2419
2018-06-13T11:36:40.558Z,114.4203
2018-06-13T11:37:45.880Z,113.9157
2018-06-13T11:38:51.313Z,113.4929
2018-06-13T11:39:57.296Z,114.1667
2018-06-13T11:41:02.453Z,114.1667
2018-06-13T11:42:07.620Z,113.2419
2018-06-13T11:43:13.028Z,112.8217
2018-06-13T11:44:18.332Z,114.4203
2018-06-13T11:45:23.485Z,113.662
2018-06-13T11:46:28.892Z,114.1667
2018-06-13T11:47:34.055Z,113.4929
2018-06-13T11:48:39.738Z,113.9157
2018-06-13T11:49:44.881Z,113.9157
2018-06-13T11:50:50.856Z,114.1667
2018-06-13T11:51:56.585Z,112.5681
2018-06-13T11:53:01.728Z,113.2419
2018-06-13T11:54:06.886Z,113.2419
2018-06-13T11:55:12.668Z,112.9882
2018-06-13T11:56:18.032Z,112.9882
2018-06-13T11:57:23.494Z,113.4929
2018-06-13T11:58:29.240Z,113.4929
2018-06-13T11:59:34.704Z,112.9882
2018-06-13T12:00:40.487Z,113.2419
2018-06-13T12:01:46.061Z,112.9882
2018-06-13T12:02:51.584Z,113.2419
2018-06-13T12:03:57.166Z,113.662
2018-06-13T12:05:02.311Z,113.2419
2018-06-13T12:06:07.347Z,112.9882
2018-06-13T12:07:12.919Z,113.9157
2018-06-13T12:08:18.089Z,113.662
2018-06-13T12:09:23.263Z,113.4929
2018-06-13T12:10:29.976Z,113.2419
2018-06-13T12:11:35.608Z,113.4929
2018-06-13T12:12:41.459Z,113.4929
2018-06-13T12:13:46.818Z,112.9882
2018-06-13T12:14:51.971Z,112.9882
2018-06-13T12:15:57.661Z,113.2419
2018-06-13T12:17:03.468Z,112.9882
2018-06-13T12:18:07.450Z,113.2419
2018-06-13T12:19:12.683Z,113.2419
2018-06-13T12:20:17.993Z,112.3171
2018-06-13T12:21:22.893Z,113.2419
2018-06-13T12:22:28.527Z,113.662
2018-06-13T12:23:34.011Z,112.8217
2018-06-13T12:24:39.134Z,112.5681
2018-06-13T12:25:44.017Z,111.8124
2018-06-13T12:26:48.596Z,113.2419
2018-06-13T12:27:53.836Z,112.8217
2018-06-13T12:28:59.273Z,113.4929
2018-06-13T12:30:04.141Z,112.9882
2018-06-13T12:31:09.409Z,112.0634
2018-06-13T12:32:14.564Z,112.8217
2018-06-13T12:33:20.001Z,112.5681
2018-06-13T12:34:25.343Z,112.0634
2018-06-13T12:35:30.528Z,112.3171
2018-06-13T12:36:36.075Z,112.0634
2018-06-13T12:37:40.955Z,112.5681
2018-06-13T12:38:46.338Z,112.8217
2018-06-13T12:39:50.968Z,112.8217
2018-06-13T12:40:55.560Z,112.3171
2018-06-13T12:42:00.722Z,112.3171
2018-06-13T12:43:05.566Z,111.8124
2018-06-13T12:44:10.643Z,112.5681
2018-06-13T12:45:15.509Z,112.3171
2018-06-13T12:46:20.618Z,112.9882
2018-06-13T12:47:26.067Z,112.8217
2018-06-13T12:48:32.046Z,112.8217
2018-06-13T12:49:37.476Z,112.9882
2018-06-13T12:50:42.938Z,113.2419
2018-06-13T12:51:47.376Z,113.4929
2018-06-13T12:52:52.264Z,112.9882
2018-06-13T12:53:57.403Z,112.9882